sensor_id;sensor_type;location;lat;lon;timestamp;P1;durP1;ratioP1;P2;durP2;ratioP2
41865;SDS011;27539;43.222;27.558;2023-06-26T00:05:20;1.30;;;1.20;;
41865;SDS011;27539;43.222;27.558;2023-06-26T00:07:45;2.00;;;1.37;;
41865;SDS011;27539;43.222;27.558;2023-06-26T00:10:11;0.73;;;0.73;;
41865;SDS011;27539;43.222;27.558;2023-06-26T00:12:36;1.75;;;1.05;;
41865;SDS011;27539;43.222;27.558;2023-06-26T00:15:02;5.95;;;1.98;;
41865;SDS011;27539;43.222;27.558;2023-06-26T00:17:28;1.37;;;1.27;;
41865;SDS011;27539;43.222;27.558;2023-06-26T00:19:53;1.95;;;1.38;;
41865;SDS011;27539;43.222;27.558;2023-06-26T00:22:20;3.08;;;1.83;;
41865;SDS011;27539;43.222;27.558;2023-06-26T00:28:10;1.20;;;0.88;;
41865;SDS011;27539;43.222;27.558;2023-06-26T00:33:58;2.63;;;1.52;;
41865;SDS011;27539;43.222;27.558;2023-06-26T00:39:47;1.52;;;1.15;;
41865;SDS011;27539;43.222;27.558;2023-06-26T00:42:12;4.72;;;1.60;;
41865;SDS011;27539;43.222;27.558;2023-06-26T00:44:38;1.93;;;1.57;;
41865;SDS011;27539;43.222;27.558;2023-06-26T00:47:03;3.45;;;1.73;;
41865;SDS011;27539;43.222;27.558;2023-06-26T00:49:29;1.42;;;1.23;;
41865;SDS011;27539;43.222;27.558;2023-06-26T00:51:55;3.03;;;1.60;;
41865;SDS011;27539;43.222;27.558;2023-06-26T00:54:21;0.95;;;0.82;;
41865;SDS011;27539;43.222;27.558;2023-06-26T00:56:51;1.47;;;1.27;;
41865;SDS011;27539;43.222;27.558;2023-06-26T00:59:16;4.15;;;2.03;;
41865;SDS011;27539;43.222;27.558;2023-06-26T01:01:42;1.07;;;0.83;;
41865;SDS011;27539;43.222;27.558;2023-06-26T01:04:08;2.57;;;2.00;;
41865;SDS011;27539;43.222;27.558;2023-06-26T01:06:43;1.65;;;1.05;;
41865;SDS011;27539;43.222;27.558;2023-06-26T01:09:15;3.47;;;1.65;;
41865;SDS011;27539;43.222;27.558;2023-06-26T01:11:42;1.33;;;1.15;;
41865;SDS011;27539;43.222;27.558;2023-06-26T01:14:08;8.07;;;1.08;;
41865;SDS011;27539;43.222;27.558;2023-06-26T01:16:33;2.72;;;1.67;;
41865;SDS011;27539;43.222;27.558;2023-06-26T01:19:00;7.97;;;0.95;;
41865;SDS011;27539;43.222;27.558;2023-06-26T01:21:26;1.30;;;1.20;;
41865;SDS011;27539;43.222;27.558;2023-06-26T01:27:03;1.33;;;1.15;;
41865;SDS011;27539;43.222;27.558;2023-06-26T01:31:56;3.13;;;1.58;;
41865;SDS011;27539;43.222;27.558;2023-06-26T01:34:22;3.42;;;1.92;;
41865;SDS011;27539;43.222;27.558;2023-06-26T01:36:48;1.37;;;1.27;;
41865;SDS011;27539;43.222;27.558;2023-06-26T01:39:15;3.10;;;1.70;;
41865;SDS011;27539;43.222;27.558;2023-06-26T01:41:41;3.03;;;2.72;;
41865;SDS011;27539;43.222;27.558;2023-06-26T01:51:55;3.08;;;2.58;;
41865;SDS011;27539;43.222;27.558;2023-06-26T01:54:28;2.83;;;2.03;;
41865;SDS011;27539;43.222;27.558;2023-06-26T01:56:58;3.53;;;2.47;;
41865;SDS011;27539;43.222;27.558;2023-06-26T01:59:25;3.58;;;2.03;;
41865;SDS011;27539;43.222;27.558;2023-06-26T02:01:53;3.92;;;2.90;;
41865;SDS011;27539;43.222;27.558;2023-06-26T02:04:19;2.43;;;2.23;;
41865;SDS011;27539;43.222;27.558;2023-06-26T02:06:45;6.15;;;2.38;;
41865;SDS011;27539;43.222;27.558;2023-06-26T02:09:10;8.10;;;3.30;;
41865;SDS011;27539;43.222;27.558;2023-06-26T02:11:36;3.10;;;1.95;;
41865;SDS011;27539;43.222;27.558;2023-06-26T02:14:01;4.55;;;2.78;;
41865;SDS011;27539;43.222;27.558;2023-06-26T02:16:28;3.78;;;2.78;;
41865;SDS011;27539;43.222;27.558;2023-06-26T02:18:53;3.73;;;3.03;;
41865;SDS011;27539;43.222;27.558;2023-06-26T02:21:19;8.50;;;2.72;;
41865;SDS011;27539;43.222;27.558;2023-06-26T02:23:44;2.95;;;2.45;;
41865;SDS011;27539;43.222;27.558;2023-06-26T02:26:10;4.00;;;3.35;;
41865;SDS011;27539;43.222;27.558;2023-06-26T02:28:36;13.77;;;4.53;;
41865;SDS011;27539;43.222;27.558;2023-06-26T02:31:01;15.40;;;3.85;;
41865;SDS011;27539;43.222;27.558;2023-06-26T02:33:27;10.87;;;3.33;;
41865;SDS011;27539;43.222;27.558;2023-06-26T02:35:52;6.30;;;3.37;;
41865;SDS011;27539;43.222;27.558;2023-06-26T02:38:18;4.33;;;3.97;;
41865;SDS011;27539;43.222;27.558;2023-06-26T02:40:43;8.47;;;4.27;;
41865;SDS011;27539;43.222;27.558;2023-06-26T02:43:09;8.13;;;4.50;;
41865;SDS011;27539;43.222;27.558;2023-06-26T02:45:34;4.75;;;3.72;;
41865;SDS011;27539;43.222;27.558;2023-06-26T02:48:00;3.85;;;2.53;;
41865;SDS011;27539;43.222;27.558;2023-06-26T02:50:25;4.90;;;4.00;;
41865;SDS011;27539;43.222;27.558;2023-06-26T02:52:51;14.83;;;3.70;;
41865;SDS011;27539;43.222;27.558;2023-06-26T02:55:18;8.80;;;5.25;;
41865;SDS011;27539;43.222;27.558;2023-06-26T02:57:46;5.93;;;5.07;;
41865;SDS011;27539;43.222;27.558;2023-06-26T03:00:12;4.60;;;3.07;;
41865;SDS011;27539;43.222;27.558;2023-06-26T03:02:38;5.50;;;3.70;;
41865;SDS011;27539;43.222;27.558;2023-06-26T03:05:03;4.23;;;3.47;;
41865;SDS011;27539;43.222;27.558;2023-06-26T03:07:29;4.57;;;3.35;;
41865;SDS011;27539;43.222;27.558;2023-06-26T03:09:55;5.47;;;3.10;;
41865;SDS011;27539;43.222;27.558;2023-06-26T03:12:20;5.50;;;3.53;;
41865;SDS011;27539;43.222;27.558;2023-06-26T03:14:46;8.53;;;4.10;;
41865;SDS011;27539;43.222;27.558;2023-06-26T03:17:11;3.53;;;3.15;;
41865;SDS011;27539;43.222;27.558;2023-06-26T03:19:37;5.10;;;3.65;;
41865;SDS011;27539;43.222;27.558;2023-06-26T03:22:02;7.83;;;4.67;;
41865;SDS011;27539;43.222;27.558;2023-06-26T03:24:28;15.30;;;4.83;;
41865;SDS011;27539;43.222;27.558;2023-06-26T03:26:54;4.70;;;4.17;;
41865;SDS011;27539;43.222;27.558;2023-06-26T03:29:20;7.77;;;5.57;;
41865;SDS011;27539;43.222;27.558;2023-06-26T03:31:45;4.63;;;3.67;;
41865;SDS011;27539;43.222;27.558;2023-06-26T03:34:11;5.72;;;3.92;;
41865;SDS011;27539;43.222;27.558;2023-06-26T03:36:36;8.55;;;5.20;;
41865;SDS011;27539;43.222;27.558;2023-06-26T03:39:02;7.90;;;5.03;;
41865;SDS011;27539;43.222;27.558;2023-06-26T03:41:29;7.95;;;3.90;;
41865;SDS011;27539;43.222;27.558;2023-06-26T03:43:54;4.47;;;3.47;;
41865;SDS011;27539;43.222;27.558;2023-06-26T03:48:47;6.20;;;3.17;;
41865;SDS011;27539;43.222;27.558;2023-06-26T03:51:12;6.07;;;3.30;;
41865;SDS011;27539;43.222;27.558;2023-06-26T03:53:38;4.53;;;3.20;;
41865;SDS011;27539;43.222;27.558;2023-06-26T03:56:03;5.17;;;3.07;;
41865;SDS011;27539;43.222;27.558;2023-06-26T03:58:29;3.03;;;2.73;;
41865;SDS011;27539;43.222;27.558;2023-06-26T04:00:54;2.43;;;2.23;;
41865;SDS011;27539;43.222;27.558;2023-06-26T04:03:20;1.77;;;1.67;;
41865;SDS011;27539;43.222;27.558;2023-06-26T04:05:46;2.58;;;2.08;;
41865;SDS011;27539;43.222;27.558;2023-06-26T04:08:11;5.70;;;1.45;;
41865;SDS011;27539;43.222;27.558;2023-06-26T04:10:37;2.10;;;1.70;;
41865;SDS011;27539;43.222;27.558;2023-06-26T04:13:02;1.55;;;1.45;;
41865;SDS011;27539;43.222;27.558;2023-06-26T04:15:28;1.77;;;1.67;;
41865;SDS011;27539;43.222;27.558;2023-06-26T04:17:53;1.57;;;1.47;;
41865;SDS011;27539;43.222;27.558;2023-06-26T04:20:19;1.73;;;1.47;;
41865;SDS011;27539;43.222;27.558;2023-06-26T04:22:44;2.57;;;2.37;;
41865;SDS011;27539;43.222;27.558;2023-06-26T04:25:09;2.43;;;1.73;;
41865;SDS011;27539;43.222;27.558;2023-06-26T04:27:37;2.58;;;2.20;;
41865;SDS011;27539;43.222;27.558;2023-06-26T04:30:03;1.97;;;1.73;;
41865;SDS011;27539;43.222;27.558;2023-06-26T04:34:55;7.88;;;2.00;;
41865;SDS011;27539;43.222;27.558;2023-06-26T04:37:21;3.23;;;1.80;;
41865;SDS011;27539;43.222;27.558;2023-06-26T04:39:47;2.95;;;2.28;;
41865;SDS011;27539;43.222;27.558;2023-06-26T04:42:12;1.63;;;1.52;;
41865;SDS011;27539;43.222;27.558;2023-06-26T04:44:38;2.53;;;2.20;;
41865;SDS011;27539;43.222;27.558;2023-06-26T04:47:05;2.72;;;2.10;;
41865;SDS011;27539;43.222;27.558;2023-06-26T04:49:31;1.80;;;1.63;;
41865;SDS011;27539;43.222;27.558;2023-06-26T04:51:57;8.63;;;0.87;;
41865;SDS011;27539;43.222;27.558;2023-06-26T04:54:25;1.67;;;1.58;;
41865;SDS011;27539;43.222;27.558;2023-06-26T04:56:51;1.58;;;1.25;;
41865;SDS011;27539;43.222;27.558;2023-06-26T04:59:16;2.28;;;1.23;;
41865;SDS011;27539;43.222;27.558;2023-06-26T05:01:42;1.42;;;1.30;;
41865;SDS011;27539;43.222;27.558;2023-06-26T05:04:09;2.35;;;2.17;;
41865;SDS011;27539;43.222;27.558;2023-06-26T05:06:34;5.53;;;2.92;;
41865;SDS011;27539;43.222;27.558;2023-06-26T05:09:00;4.78;;;2.38;;
41865;SDS011;27539;43.222;27.558;2023-06-26T05:11:26;2.77;;;1.90;;
41865;SDS011;27539;43.222;27.558;2023-06-26T05:13:51;4.07;;;2.70;;
41865;SDS011;27539;43.222;27.558;2023-06-26T05:16:17;3.63;;;2.00;;
41865;SDS011;27539;43.222;27.558;2023-06-26T05:18:42;1.55;;;1.45;;
41865;SDS011;27539;43.222;27.558;2023-06-26T05:21:08;3.55;;;1.48;;
41865;SDS011;27539;43.222;27.558;2023-06-26T05:23:34;3.40;;;1.63;;
41865;SDS011;27539;43.222;27.558;2023-06-26T05:26:00;4.07;;;2.83;;
41865;SDS011;27539;43.222;27.558;2023-06-26T05:28:27;1.98;;;1.77;;
41865;SDS011;27539;43.222;27.558;2023-06-26T05:30:53;2.38;;;2.17;;
41865;SDS011;27539;43.222;27.558;2023-06-26T05:35:46;6.47;;;2.83;;
41865;SDS011;27539;43.222;27.558;2023-06-26T05:40:39;3.40;;;2.25;;
41865;SDS011;27539;43.222;27.558;2023-06-26T05:43:06;2.97;;;2.72;;
41865;SDS011;27539;43.222;27.558;2023-06-26T05:45:32;3.08;;;2.78;;
41865;SDS011;27539;43.222;27.558;2023-06-26T05:47:58;8.50;;;3.33;;
41865;SDS011;27539;43.222;27.558;2023-06-26T05:50:24;3.60;;;2.88;;
41865;SDS011;27539;43.222;27.558;2023-06-26T05:52:50;5.07;;;3.13;;
41865;SDS011;27539;43.222;27.558;2023-06-26T05:55:16;4.45;;;2.30;;
41865;SDS011;27539;43.222;27.558;2023-06-26T05:57:42;7.35;;;3.83;;
41865;SDS011;27539;43.222;27.558;2023-06-26T06:00:10;7.15;;;3.58;;
41865;SDS011;27539;43.222;27.558;2023-06-26T06:02:36;2.57;;;2.37;;
41865;SDS011;27539;43.222;27.558;2023-06-26T06:05:02;3.22;;;2.92;;
41865;SDS011;27539;43.222;27.558;2023-06-26T06:07:28;2.72;;;2.25;;
41865;SDS011;27539;43.222;27.558;2023-06-26T06:09:54;4.63;;;3.70;;
41865;SDS011;27539;43.222;27.558;2023-06-26T06:12:19;3.20;;;2.87;;
41865;SDS011;27539;43.222;27.558;2023-06-26T06:14:45;5.77;;;3.27;;
41865;SDS011;27539;43.222;27.558;2023-06-26T06:17:10;2.33;;;2.13;;
41865;SDS011;27539;43.222;27.558;2023-06-26T06:19:36;7.75;;;2.85;;
41865;SDS011;27539;43.222;27.558;2023-06-26T06:22:01;2.75;;;2.47;;
41865;SDS011;27539;43.222;27.558;2023-06-26T06:24:27;3.88;;;2.78;;
41865;SDS011;27539;43.222;27.558;2023-06-26T06:26:52;2.88;;;2.45;;
41865;SDS011;27539;43.222;27.558;2023-06-26T06:29:18;7.32;;;2.53;;
41865;SDS011;27539;43.222;27.558;2023-06-26T06:31:44;2.35;;;2.05;;
41865;SDS011;27539;43.222;27.558;2023-06-26T06:34:10;4.18;;;2.90;;
41865;SDS011;27539;43.222;27.558;2023-06-26T06:36:36;5.88;;;3.25;;
41865;SDS011;27539;43.222;27.558;2023-06-26T06:39:02;3.53;;;2.47;;
41865;SDS011;27539;43.222;27.558;2023-06-26T06:41:28;2.77;;;2.00;;
41865;SDS011;27539;43.222;27.558;2023-06-26T06:43:53;6.43;;;2.73;;
41865;SDS011;27539;43.222;27.558;2023-06-26T06:46:19;4.30;;;2.17;;
41865;SDS011;27539;43.222;27.558;2023-06-26T06:48:45;2.43;;;1.83;;
41865;SDS011;27539;43.222;27.558;2023-06-26T06:51:12;3.63;;;2.10;;
41865;SDS011;27539;43.222;27.558;2023-06-26T06:53:37;2.92;;;2.03;;
41865;SDS011;27539;43.222;27.558;2023-06-26T06:56:03;3.47;;;2.57;;
41865;SDS011;27539;43.222;27.558;2023-06-26T06:58:29;4.73;;;2.60;;
41865;SDS011;27539;43.222;27.558;2023-06-26T07:00:55;5.70;;;2.65;;
41865;SDS011;27539;43.222;27.558;2023-06-26T07:03:21;2.43;;;1.57;;
41865;SDS011;27539;43.222;27.558;2023-06-26T07:08:49;3.40;;;2.72;;
41865;SDS011;27539;43.222;27.558;2023-06-26T07:11:15;3.43;;;1.83;;
41865;SDS011;27539;43.222;27.558;2023-06-26T07:13:41;12.18;;;2.60;;
41865;SDS011;27539;43.222;27.558;2023-06-26T07:16:06;2.37;;;2.00;;
41865;SDS011;27539;43.222;27.558;2023-06-26T07:18:32;2.53;;;1.87;;
41865;SDS011;27539;43.222;27.558;2023-06-26T07:20:58;3.50;;;2.33;;
41865;SDS011;27539;43.222;27.558;2023-06-26T07:23:23;2.50;;;2.22;;
41865;SDS011;27539;43.222;27.558;2023-06-26T07:25:49;12.43;;;1.60;;
41865;SDS011;27539;43.222;27.558;2023-06-26T07:28:14;2.83;;;1.70;;
41865;SDS011;27539;43.222;27.558;2023-06-26T07:30:40;1.63;;;1.43;;
41865;SDS011;27539;43.222;27.558;2023-06-26T07:33:05;1.50;;;0.93;;
41865;SDS011;27539;43.222;27.558;2023-06-26T07:35:31;1.90;;;1.40;;
41865;SDS011;27539;43.222;27.558;2023-06-26T07:37:56;12.88;;;2.25;;
41865;SDS011;27539;43.222;27.558;2023-06-26T07:40:22;1.53;;;1.43;;
41865;SDS011;27539;43.222;27.558;2023-06-26T07:42:47;2.70;;;1.37;;
41865;SDS011;27539;43.222;27.558;2023-06-26T07:45:13;0.97;;;0.97;;
41865;SDS011;27539;43.222;27.558;2023-06-26T07:51:03;1.52;;;1.42;;
41865;SDS011;27539;43.222;27.558;2023-06-26T07:55:54;1.63;;;1.52;;
41865;SDS011;27539;43.222;27.558;2023-06-26T07:58:23;2.83;;;1.27;;
41865;SDS011;27539;43.222;27.558;2023-06-26T08:00:48;1.55;;;1.45;;
41865;SDS011;27539;43.222;27.558;2023-06-26T08:03:14;2.23;;;1.83;;
41865;SDS011;27539;43.222;27.558;2023-06-26T08:05:46;14.97;;;1.60;;
41865;SDS011;27539;43.222;27.558;2023-06-26T08:08:12;1.95;;;1.75;;
41865;SDS011;27539;43.222;27.558;2023-06-26T08:10:38;1.43;;;1.33;;
41865;SDS011;27539;43.222;27.558;2023-06-26T08:13:03;1.47;;;1.37;;
41865;SDS011;27539;43.222;27.558;2023-06-26T08:15:28;2.03;;;1.83;;
41865;SDS011;27539;43.222;27.558;2023-06-26T08:17:54;3.17;;;1.90;;
41865;SDS011;27539;43.222;27.558;2023-06-26T08:20:20;3.53;;;2.20;;
41865;SDS011;27539;43.222;27.558;2023-06-26T08:22:45;1.57;;;1.43;;
41865;SDS011;27539;43.222;27.558;2023-06-26T08:25:13;2.72;;;2.15;;
41865;SDS011;27539;43.222;27.558;2023-06-26T08:27:52;2.10;;;1.30;;
41865;SDS011;27539;43.222;27.558;2023-06-26T08:30:19;3.00;;;1.83;;
41865;SDS011;27539;43.222;27.558;2023-06-26T08:32:44;3.47;;;1.73;;
41865;SDS011;27539;43.222;27.558;2023-06-26T08:35:11;0.97;;;0.83;;
41865;SDS011;27539;43.222;27.558;2023-06-26T08:37:37;1.52;;;1.33;;
41865;SDS011;27539;43.222;27.558;2023-06-26T08:40:03;2.57;;;1.60;;
41865;SDS011;27539;43.222;27.558;2023-06-26T08:45:52;1.60;;;1.42;;
41865;SDS011;27539;43.222;27.558;2023-06-26T08:51:13;2.20;;;2.00;;
41865;SDS011;27539;43.222;27.558;2023-06-26T08:53:56;1.40;;;1.30;;
41865;SDS011;27539;43.222;27.558;2023-06-26T08:56:24;2.13;;;1.25;;
41865;SDS011;27539;43.222;27.558;2023-06-26T08:58:52;1.25;;;1.15;;
41865;SDS011;27539;43.222;27.558;2023-06-26T09:01:20;1.95;;;1.42;;
41865;SDS011;27539;43.222;27.558;2023-06-26T09:03:46;1.48;;;1.23;;
41865;SDS011;27539;43.222;27.558;2023-06-26T09:06:11;2.47;;;1.43;;
41865;SDS011;27539;43.222;27.558;2023-06-26T09:08:37;1.53;;;1.40;;
41865;SDS011;27539;43.222;27.558;2023-06-26T09:11:02;1.90;;;1.27;;
41865;SDS011;27539;43.222;27.558;2023-06-26T09:13:28;2.90;;;1.70;;
41865;SDS011;27539;43.222;27.558;2023-06-26T09:15:55;2.28;;;1.80;;
41865;SDS011;27539;43.222;27.558;2023-06-26T09:18:21;0.73;;;0.73;;
41865;SDS011;27539;43.222;27.558;2023-06-26T09:20:47;4.00;;;1.10;;
41865;SDS011;27539;43.222;27.558;2023-06-26T09:23:13;0.90;;;0.77;;
41865;SDS011;27539;43.222;27.558;2023-06-26T09:25:39;1.13;;;0.97;;
41865;SDS011;27539;43.222;27.558;2023-06-26T09:30:34;3.67;;;1.42;;
41865;SDS011;27539;43.222;27.558;2023-06-26T09:33:16;3.53;;;1.33;;
41865;SDS011;27539;43.222;27.558;2023-06-26T09:35:44;1.48;;;1.20;;
41865;SDS011;27539;43.222;27.558;2023-06-26T09:38:10;1.00;;;0.95;;
41865;SDS011;27539;43.222;27.558;2023-06-26T09:40:37;1.45;;;0.73;;
41865;SDS011;27539;43.222;27.558;2023-06-26T09:43:05;5.90;;;0.85;;
41865;SDS011;27539;43.222;27.558;2023-06-26T09:45:34;1.23;;;0.95;;
41865;SDS011;27539;43.222;27.558;2023-06-26T09:48:04;2.60;;;1.15;;
41865;SDS011;27539;43.222;27.558;2023-06-26T09:53:09;1.42;;;0.88;;
41865;SDS011;27539;43.222;27.558;2023-06-26T09:55:36;4.32;;;1.00;;
41865;SDS011;27539;43.222;27.558;2023-06-26T09:58:02;0.70;;;0.70;;
41865;SDS011;27539;43.222;27.558;2023-06-26T10:00:29;1.95;;;1.50;;
41865;SDS011;27539;43.222;27.558;2023-06-26T10:02:56;1.10;;;0.73;;
41865;SDS011;27539;43.222;27.558;2023-06-26T10:05:21;1.50;;;0.97;;
41865;SDS011;27539;43.222;27.558;2023-06-26T10:07:47;1.70;;;1.00;;
41865;SDS011;27539;43.222;27.558;2023-06-26T10:10:13;2.15;;;1.23;;
41865;SDS011;27539;43.222;27.558;2023-06-26T10:12:41;0.93;;;0.90;;
41865;SDS011;27539;43.222;27.558;2023-06-26T10:15:10;1.40;;;1.20;;
41865;SDS011;27539;43.222;27.558;2023-06-26T10:17:38;1.00;;;0.80;;
41865;SDS011;27539;43.222;27.558;2023-06-26T10:20:08;0.90;;;0.77;;
41865;SDS011;27539;43.222;27.558;2023-06-26T10:22:36;1.65;;;0.85;;
41865;SDS011;27539;43.222;27.558;2023-06-26T10:25:06;2.83;;;1.20;;
41865;SDS011;27539;43.222;27.558;2023-06-26T10:27:35;1.38;;;0.93;;
41865;SDS011;27539;43.222;27.558;2023-06-26T10:30:04;0.65;;;0.65;;
41865;SDS011;27539;43.222;27.558;2023-06-26T10:32:34;1.20;;;1.10;;
41865;SDS011;27539;43.222;27.558;2023-06-26T10:35:00;0.70;;;0.70;;
41865;SDS011;27539;43.222;27.558;2023-06-26T10:37:42;1.85;;;0.70;;
41865;SDS011;27539;43.222;27.558;2023-06-26T10:40:13;1.45;;;1.05;;
41865;SDS011;27539;43.222;27.558;2023-06-26T10:42:46;3.60;;;1.02;;
41865;SDS011;27539;43.222;27.558;2023-06-26T10:45:15;0.93;;;0.93;;
41865;SDS011;27539;43.222;27.558;2023-06-26T10:47:42;5.53;;;1.20;;
41865;SDS011;27539;43.222;27.558;2023-06-26T10:50:25;1.90;;;1.00;;
41865;SDS011;27539;43.222;27.558;2023-06-26T10:53:13;1.15;;;1.08;;
41865;SDS011;27539;43.222;27.558;2023-06-26T10:56:10;0.82;;;0.82;;
41865;SDS011;27539;43.222;27.558;2023-06-26T11:03:40;2.47;;;0.60;;
41865;SDS011;27539;43.222;27.558;2023-06-26T11:06:10;2.45;;;1.33;;
41865;SDS011;27539;43.222;27.558;2023-06-26T11:08:44;0.70;;;0.70;;
41865;SDS011;27539;43.222;27.558;2023-06-26T11:11:11;1.27;;;0.95;;
41865;SDS011;27539;43.222;27.558;2023-06-26T11:13:37;1.73;;;0.80;;
41865;SDS011;27539;43.222;27.558;2023-06-26T11:16:02;0.90;;;0.67;;
41865;SDS011;27539;43.222;27.558;2023-06-26T11:18:28;1.10;;;0.65;;
41865;SDS011;27539;43.222;27.558;2023-06-26T11:21:03;0.68;;;0.63;;
41865;SDS011;27539;43.222;27.558;2023-06-26T11:23:32;0.68;;;0.68;;
41865;SDS011;27539;43.222;27.558;2023-06-26T11:28:48;1.13;;;0.90;;
41865;SDS011;27539;43.222;27.558;2023-06-26T11:31:27;2.13;;;0.90;;
41865;SDS011;27539;43.222;27.558;2023-06-26T11:33:57;0.65;;;0.38;;
41865;SDS011;27539;43.222;27.558;2023-06-26T11:36:24;1.65;;;0.90;;
41865;SDS011;27539;43.222;27.558;2023-06-26T11:41:24;0.68;;;0.68;;
41865;SDS011;27539;43.222;27.558;2023-06-26T11:43:51;5.53;;;1.35;;
41865;SDS011;27539;43.222;27.558;2023-06-26T11:46:20;1.40;;;0.95;;
41865;SDS011;27539;43.222;27.558;2023-06-26T11:48:47;0.88;;;0.82;;
41865;SDS011;27539;43.222;27.558;2023-06-26T11:51:13;0.88;;;0.88;;
41865;SDS011;27539;43.222;27.558;2023-06-26T11:53:43;0.73;;;0.73;;
41865;SDS011;27539;43.222;27.558;2023-06-26T11:56:11;1.10;;;1.00;;
41865;SDS011;27539;43.222;27.558;2023-06-26T12:04:08;0.80;;;0.60;;
41865;SDS011;27539;43.222;27.558;2023-06-26T12:06:38;2.97;;;1.23;;
41865;SDS011;27539;43.222;27.558;2023-06-26T12:09:05;1.30;;;1.20;;
41865;SDS011;27539;43.222;27.558;2023-06-26T12:11:35;0.63;;;0.63;;
41865;SDS011;27539;43.222;27.558;2023-06-26T12:14:03;0.70;;;0.70;;
41865;SDS011;27539;43.222;27.558;2023-06-26T12:16:30;1.67;;;1.00;;
41865;SDS011;27539;43.222;27.558;2023-06-26T12:18:59;0.43;;;0.38;;
41865;SDS011;27539;43.222;27.558;2023-06-26T12:24:03;1.67;;;0.98;;
41865;SDS011;27539;43.222;27.558;2023-06-26T12:26:35;0.50;;;0.50;;
41865;SDS011;27539;43.222;27.558;2023-06-26T12:31:30;0.75;;;0.50;;
41865;SDS011;27539;43.222;27.558;2023-06-26T12:33:56;0.40;;;0.40;;
41865;SDS011;27539;43.222;27.558;2023-06-26T12:36:22;0.87;;;0.67;;
41865;SDS011;27539;43.222;27.558;2023-06-26T12:38:48;1.10;;;0.80;;
41865;SDS011;27539;43.222;27.558;2023-06-26T12:41:14;1.02;;;0.55;;
41865;SDS011;27539;43.222;27.558;2023-06-26T12:43:40;1.90;;;0.80;;
41865;SDS011;27539;43.222;27.558;2023-06-26T12:48:39;0.65;;;0.65;;
41865;SDS011;27539;43.222;27.558;2023-06-26T12:51:10;0.80;;;0.73;;
41865;SDS011;27539;43.222;27.558;2023-06-26T12:53:37;0.40;;;0.40;;
41865;SDS011;27539;43.222;27.558;2023-06-26T12:56:05;1.15;;;0.75;;
41865;SDS011;27539;43.222;27.558;2023-06-26T12:58:34;0.40;;;0.40;;
41865;SDS011;27539;43.222;27.558;2023-06-26T13:01:04;1.35;;;0.70;;
41865;SDS011;27539;43.222;27.558;2023-06-26T13:03:35;0.40;;;0.40;;
41865;SDS011;27539;43.222;27.558;2023-06-26T13:06:02;0.50;;;0.50;;
41865;SDS011;27539;43.222;27.558;2023-06-26T13:08:27;0.60;;;0.60;;
41865;SDS011;27539;43.222;27.558;2023-06-26T13:10:54;2.10;;;1.02;;
41865;SDS011;27539;43.222;27.558;2023-06-26T13:13:19;4.53;;;0.90;;
41865;SDS011;27539;43.222;27.558;2023-06-26T13:15:45;2.47;;;1.03;;
41865;SDS011;27539;43.222;27.558;2023-06-26T13:18:10;0.97;;;0.70;;
41865;SDS011;27539;43.222;27.558;2023-06-26T13:20:35;0.60;;;0.60;;
41865;SDS011;27539;43.222;27.558;2023-06-26T13:23:01;1.43;;;0.80;;
41865;SDS011;27539;43.222;27.558;2023-06-26T13:25:26;0.53;;;0.53;;
41865;SDS011;27539;43.222;27.558;2023-06-26T13:27:52;0.73;;;0.60;;
41865;SDS011;27539;43.222;27.558;2023-06-26T13:30:18;0.77;;;0.77;;
41865;SDS011;27539;43.222;27.558;2023-06-26T13:32:43;1.00;;;1.00;;
41865;SDS011;27539;43.222;27.558;2023-06-26T13:35:08;1.27;;;0.87;;
41865;SDS011;27539;43.222;27.558;2023-06-26T13:37:34;0.50;;;0.50;;
41865;SDS011;27539;43.222;27.558;2023-06-26T13:40:00;1.57;;;0.90;;
41865;SDS011;27539;43.222;27.558;2023-06-26T13:44:53;0.73;;;0.63;;
41865;SDS011;27539;43.222;27.558;2023-06-26T13:47:18;2.43;;;0.80;;
41865;SDS011;27539;43.222;27.558;2023-06-26T13:49:44;2.73;;;0.90;;
41865;SDS011;27539;43.222;27.558;2023-06-26T13:52:09;1.53;;;1.13;;
41865;SDS011;27539;43.222;27.558;2023-06-26T13:54:35;2.63;;;1.33;;
41865;SDS011;27539;43.222;27.558;2023-06-26T13:57:02;1.27;;;0.77;;
41865;SDS011;27539;43.222;27.558;2023-06-26T13:59:30;0.98;;;0.93;;
41865;SDS011;27539;43.222;27.558;2023-06-26T14:01:56;1.50;;;1.08;;
41865;SDS011;27539;43.222;27.558;2023-06-26T14:04:23;0.95;;;0.95;;
41865;SDS011;27539;43.222;27.558;2023-06-26T14:06:48;0.83;;;0.70;;
41865;SDS011;27539;43.222;27.558;2023-06-26T14:09:14;4.10;;;0.70;;
41865;SDS011;27539;43.222;27.558;2023-06-26T14:11:39;1.27;;;1.17;;
41865;SDS011;27539;43.222;27.558;2023-06-26T14:14:05;1.33;;;1.03;;
41865;SDS011;27539;43.222;27.558;2023-06-26T14:16:30;1.20;;;0.80;;
41865;SDS011;27539;43.222;27.558;2023-06-26T14:18:56;2.35;;;0.98;;
41865;SDS011;27539;43.222;27.558;2023-06-26T14:21:22;0.50;;;0.50;;
41865;SDS011;27539;43.222;27.558;2023-06-26T14:23:47;0.83;;;0.80;;
41865;SDS011;27539;43.222;27.558;2023-06-26T14:26:13;1.37;;;0.83;;
41865;SDS011;27539;43.222;27.558;2023-06-26T14:28:38;0.43;;;0.43;;
41865;SDS011;27539;43.222;27.558;2023-06-26T14:31:04;2.53;;;1.43;;
41865;SDS011;27539;43.222;27.558;2023-06-26T14:33:30;0.50;;;0.50;;
41865;SDS011;27539;43.222;27.558;2023-06-26T14:35:56;1.23;;;0.83;;
41865;SDS011;27539;43.222;27.558;2023-06-26T14:38:21;0.40;;;0.37;;
41865;SDS011;27539;43.222;27.558;2023-06-26T14:40:47;1.03;;;0.80;;
41865;SDS011;27539;43.222;27.558;2023-06-26T14:43:12;0.73;;;0.63;;
41865;SDS011;27539;43.222;27.558;2023-06-26T14:45:38;0.73;;;0.70;;
41865;SDS011;27539;43.222;27.558;2023-06-26T14:48:03;2.20;;;1.00;;
41865;SDS011;27539;43.222;27.558;2023-06-26T14:50:29;0.63;;;0.63;;
41865;SDS011;27539;43.222;27.558;2023-06-26T14:52:55;3.10;;;0.83;;
41865;SDS011;27539;43.222;27.558;2023-06-26T14:55:20;1.23;;;0.70;;
41865;SDS011;27539;43.222;27.558;2023-06-26T14:57:46;1.43;;;0.90;;
41865;SDS011;27539;43.222;27.558;2023-06-26T15:00:11;1.93;;;0.90;;
41865;SDS011;27539;43.222;27.558;2023-06-26T15:02:37;1.10;;;0.57;;
41865;SDS011;27539;43.222;27.558;2023-06-26T15:05:03;1.40;;;0.90;;
41865;SDS011;27539;43.222;27.558;2023-06-26T15:07:29;1.53;;;1.10;;
41865;SDS011;27539;43.222;27.558;2023-06-26T15:09:54;0.53;;;0.53;;
41865;SDS011;27539;43.222;27.558;2023-06-26T15:12:20;3.20;;;1.60;;
41865;SDS011;27539;43.222;27.558;2023-06-26T15:14:45;2.83;;;1.47;;
41865;SDS011;27539;43.222;27.558;2023-06-26T15:17:11;0.40;;;0.40;;
41865;SDS011;27539;43.222;27.558;2023-06-26T15:19:37;0.43;;;0.40;;
41865;SDS011;27539;43.222;27.558;2023-06-26T15:22:03;1.52;;;0.80;;
41865;SDS011;27539;43.222;27.558;2023-06-26T15:24:29;2.20;;;0.63;;
41865;SDS011;27539;43.222;27.558;2023-06-26T15:26:54;1.00;;;0.87;;
41865;SDS011;27539;43.222;27.558;2023-06-26T15:29:20;1.37;;;0.87;;
41865;SDS011;27539;43.222;27.558;2023-06-26T15:31:45;1.23;;;0.70;;
41865;SDS011;27539;43.222;27.558;2023-06-26T15:34:11;1.60;;;0.53;;
41865;SDS011;27539;43.222;27.558;2023-06-26T15:36:38;1.77;;;1.00;;
41865;SDS011;27539;43.222;27.558;2023-06-26T15:39:04;0.73;;;0.73;;
41865;SDS011;27539;43.222;27.558;2023-06-26T15:41:29;1.23;;;1.13;;
41865;SDS011;27539;43.222;27.558;2023-06-26T15:43:55;0.53;;;0.47;;
41865;SDS011;27539;43.222;27.558;2023-06-26T15:46:20;0.73;;;0.53;;
41865;SDS011;27539;43.222;27.558;2023-06-26T15:48:46;0.87;;;0.70;;
41865;SDS011;27539;43.222;27.558;2023-06-26T15:51:12;5.27;;;2.97;;
41865;SDS011;27539;43.222;27.558;2023-06-26T15:53:42;0.90;;;0.70;;